Time;durP1;ratioP1;P1;durP2;ratioP2;P2;SDS_P1;SDS_P2;PMS_P1;PMS_P2;Temp;Humidity;BMP_temperature;BMP_pressure;BME280_temperature;BME280_humidity;BME280_pressure;Samples;Min_cycle;Max_cycle;Signal;HPM_P1;HPM_P2
2023/08/19 00:00:22;;;;;;;6.55;4.45;;;;;;;;;;5061106;28;20293;-68
2023/08/19 00:02:50;;;;;;;4.13;3.72;;;;;;;;;;5062545;28;20578;-68
2023/08/19 00:05:18;;;;;;;6.20;3.72;;;;;;;;;;5057987;28;20202;-68
2023/08/19 00:07:45;;;;;;;4.32;3.67;;;;;;;;;;5060545;28;20315;-67
2023/08/19 00:10:13;;;;;;;4.93;3.33;;;;;;;;;;5052006;28;20221;-67
2023/08/19 00:12:40;;;;;;;4.00;3.15;;;;;;;;;;5055596;28;20198;-69
2023/08/19 00:15:07;;;;;;;5.53;3.00;;;;;;;;;;5056640;28;20205;-68
2023/08/19 00:17:35;;;;;;;3.58;3.20;;;;;;;;;;5055186;28;20218;-68
2023/08/19 00:20:05;;;;;;;3.97;3.22;;;;;;;;;;5055011;28;20267;-69
2023/08/19 00:22:33;;;;;;;3.88;3.05;;;;;;;;;;5055711;28;20710;-68
2023/08/19 00:25:00;;;;;;;4.85;2.90;;;;;;;;;;5056451;28;20216;-69
2023/08/19 00:27:27;;;;;;;3.80;3.20;;;;;;;;;;5056383;28;20226;-69
2023/08/19 00:29:55;;;;;;;5.35;3.03;;;;;;;;;;5054850;28;20312;-70
2023/08/19 00:32:22;;;;;;;5.70;2.92;;;;;;;;;;5057374;28;20259;-68
2023/08/19 00:34:50;;;;;;;6.22;4.10;;;;;;;;;;5053948;28;20683;-66
2023/08/19 00:37:18;;;;;;;6.15;4.68;;;;;;;;;;5057429;28;20252;-67
2023/08/19 00:39:45;;;;;;;5.65;4.85;;;;;;;;;;5054845;28;20264;-69
2023/08/19 00:42:12;;;;;;;6.78;4.80;;;;;;;;;;5058807;28;20212;-68
2023/08/19 00:44:40;;;;;;;5.32;4.13;;;;;;;;;;5063553;28;20627;-69
2023/08/19 00:47:07;;;;;;;5.80;3.80;;;;;;;;;;5052941;28;20338;-68
2023/08/19 00:49:34;;;;;;;6.63;3.42;;;;;;;;;;5061946;28;20237;-68
2023/08/19 00:52:02;;;;;;;5.70;3.15;;;;;;;;;;5055376;28;20732;-68
2023/08/19 00:54:30;;;;;;;5.25;3.38;;;;;;;;;;5052448;28;20209;-67
2023/08/19 00:56:57;;;;;;;4.10;3.00;;;;;;;;;;5061394;28;20271;-67
2023/08/19 00:59:24;;;;;;;5.13;3.17;;;;;;;;;;5054114;28;20748;-68
2023/08/19 01:01:52;;;;;;;5.30;2.90;;;;;;;;;;5056316;28;20205;-68
2023/08/19 01:04:19;;;;;;;5.18;3.00;;;;;;;;;;5052999;28;20292;-68
2023/08/19 01:07:08;;;;;;;3.65;2.88;;;;;;;;;;5050913;28;20225;-68
2023/08/19 01:09:44;;;;;;;4.63;3.25;;;;;;;;;;5052630;28;20437;-68
2023/08/19 01:12:30;;;;;;;3.25;2.95;;;;;;;;;;5060888;28;20228;-69
2023/08/19 01:15:04;;;;;;;4.35;2.83;;;;;;;;;;5070153;28;20197;-69
2023/08/19 01:17:32;;;;;;;4.05;2.80;;;;;;;;;;5056638;28;20218;-68
2023/08/19 01:20:00;;;;;;;3.20;2.90;;;;;;;;;;5055255;28;20686;-69
2023/08/19 01:22:37;;;;;;;3.50;3.20;;;;;;;;;;5056570;28;20746;-68
2023/08/19 01:25:05;;;;;;;3.70;3.10;;;;;;;;;;5058267;28;20213;-69
2023/08/19 01:27:33;;;;;;;3.42;3.13;;;;;;;;;;5057812;28;20233;-69
2023/08/19 01:30:00;;;;;;;6.80;2.78;;;;;;;;;;5057859;28;20225;-68
2023/08/19 01:32:28;;;;;;;5.40;3.25;;;;;;;;;;5054632;28;20293;-69
2023/08/19 01:34:56;;;;;;;4.78;3.38;;;;;;;;;;5056095;28;20205;-69
2023/08/19 01:37:43;;;;;;;3.97;3.03;;;;;;;;;;5054458;28;20655;-69
2023/08/19 01:40:11;;;;;;;3.67;2.78;;;;;;;;;;5055814;28;20393;-68
2023/08/19 01:42:39;;;;;;;6.97;3.30;;;;;;;;;;5051735;28;20210;-69
2023/08/19 01:45:07;;;;;;;5.95;3.08;;;;;;;;;;5052682;28;20206;-69
2023/08/19 01:47:37;;;;;;;4.88;3.10;;;;;;;;;;5060400;28;20247;-68
2023/08/19 01:50:05;;;;;;;2.85;2.65;;;;;;;;;;5053251;28;20226;-68
2023/08/19 01:52:32;;;;;;;3.85;2.92;;;;;;;;;;5055071;28;20748;-68
2023/08/19 01:55:00;;;;;;;4.57;3.33;;;;;;;;;;5057341;28;20206;-68
2023/08/19 01:57:27;;;;;;;4.45;2.80;;;;;;;;;;5054085;28;20695;-68
2023/08/19 01:59:55;;;;;;;3.90;3.03;;;;;;;;;;5050127;28;20214;-68
2023/08/19 02:02:23;;;;;;;3.92;2.88;;;;;;;;;;5050834;28;20272;-68
2023/08/19 02:04:50;;;;;;;3.47;3.08;;;;;;;;;;5050698;28;20213;-69
2023/08/19 02:07:18;;;;;;;6.80;3.08;;;;;;;;;;5054506;28;20229;-69
2023/08/19 02:09:46;;;;;;;5.53;3.30;;;;;;;;;;5045589;28;20225;-69
2023/08/19 02:12:13;;;;;;;4.20;2.90;;;;;;;;;;5047544;28;21980;-68
2023/08/19 02:14:41;;;;;;;6.07;3.10;;;;;;;;;;5047269;28;20275;-68
2023/08/19 02:17:08;;;;;;;11.43;3.33;;;;;;;;;;5049269;28;20748;-67
2023/08/19 02:19:35;;;;;;;4.15;2.90;;;;;;;;;;5053697;28;20809;-70
2023/08/19 02:22:04;;;;;;;4.03;3.33;;;;;;;;;;5053115;28;20205;-68
2023/08/19 02:24:31;;;;;;;5.55;3.58;;;;;;;;;;5046775;28;20225;-69
2023/08/19 02:26:58;;;;;;;4.95;3.47;;;;;;;;;;5052670;28;20217;-69
2023/08/19 02:29:25;;;;;;;4.22;3.25;;;;;;;;;;5049909;28;20578;-68
2023/08/19 02:31:53;;;;;;;6.65;3.50;;;;;;;;;;5046165;28;20251;-68
2023/08/19 02:34:20;;;;;;;5.03;3.22;;;;;;;;;;5052693;28;20202;-68
2023/08/19 02:36:47;;;;;;;3.03;2.72;;;;;;;;;;5054017;28;20806;-67
2023/08/19 02:39:14;;;;;;;5.68;3.22;;;;;;;;;;5049487;28;20202;-70
2023/08/19 02:41:42;;;;;;;4.22;3.10;;;;;;;;;;5051503;28;20216;-69
2023/08/19 02:44:09;;;;;;;5.45;3.00;;;;;;;;;;5052684;28;20266;-69
2023/08/19 02:46:36;;;;;;;3.33;3.00;;;;;;;;;;5051498;28;20225;-69
2023/08/19 02:49:04;;;;;;;7.25;3.63;;;;;;;;;;5048143;28;20225;-67
2023/08/19 02:51:31;;;;;;;4.18;3.78;;;;;;;;;;5048853;28;20516;-67
2023/08/19 02:53:58;;;;;;;3.95;3.47;;;;;;;;;;5051207;28;20198;-67
2023/08/19 02:56:26;;;;;;;5.10;3.28;;;;;;;;;;5051557;28;20221;-66
2023/08/19 02:58:53;;;;;;;4.93;3.42;;;;;;;;;;5052466;28;20198;-67
2023/08/19 03:01:20;;;;;;;4.40;3.40;;;;;;;;;;5054315;28;20206;-67
2023/08/19 03:03:48;;;;;;;4.15;3.30;;;;;;;;;;5060042;28;20829;-67
2023/08/19 03:06:15;;;;;;;4.00;2.88;;;;;;;;;;5053791;28;20205;-66
2023/08/19 03:08:45;;;;;;;6.85;3.53;;;;;;;;;;5060896;28;20221;-66
2023/08/19 03:11:13;;;;;;;5.63;3.38;;;;;;;;;;5057459;28;20355;-67
2023/08/19 03:13:40;;;;;;;4.35;3.30;;;;;;;;;;5058506;28;20247;-66
2023/08/19 03:16:07;;;;;;;3.42;3.13;;;;;;;;;;5054841;28;20210;-66
2023/08/19 03:18:34;;;;;;;7.43;3.13;;;;;;;;;;5055748;28;20194;-66
2023/08/19 03:21:02;;;;;;;3.40;3.10;;;;;;;;;;5060447;28;20210;-66
2023/08/19 03:23:29;;;;;;;3.83;3.40;;;;;;;;;;5060748;28;20206;-66
2023/08/19 03:25:57;;;;;;;4.72;3.45;;;;;;;;;;5058482;28;20205;-66
2023/08/19 03:28:25;;;;;;;3.78;3.30;;;;;;;;;;5055018;28;20814;-66
2023/08/19 03:30:52;;;;;;;5.35;3.38;;;;;;;;;;5058150;28;20775;-66
2023/08/19 03:33:20;;;;;;;4.72;3.70;;;;;;;;;;5061149;28;20205;-66
2023/08/19 03:35:47;;;;;;;4.53;3.38;;;;;;;;;;5058385;28;20655;-67
2023/08/19 03:38:15;;;;;;;3.45;3.15;;;;;;;;;;5058604;28;20706;-67
2023/08/19 03:40:43;;;;;;;5.03;3.17;;;;;;;;;;5058521;28;20400;-66
2023/08/19 03:43:10;;;;;;;4.03;3.47;;;;;;;;;;5055721;28;20202;-67
2023/08/19 03:45:37;;;;;;;3.88;3.33;;;;;;;;;;5058328;28;20205;-66
2023/08/19 03:48:05;;;;;;;5.18;3.40;;;;;;;;;;5057409;28;20226;-67
2023/08/19 03:50:32;;;;;;;7.10;5.47;;;;;;;;;;5057334;28;20234;-69
2023/08/19 03:53:00;;;;;;;4.40;3.65;;;;;;;;;;5060904;28;20283;-67
2023/08/19 03:55:27;;;;;;;3.80;3.50;;;;;;;;;;5046219;28;20725;-69
2023/08/19 03:57:55;;;;;;;5.80;4.30;;;;;;;;;;5059355;28;20290;-67
2023/08/19 04:00:22;;;;;;;5.35;4.22;;;;;;;;;;5065830;28;20313;-69
2023/08/19 04:02:50;;;;;;;5.75;4.47;;;;;;;;;;5053586;28;20201;-68
2023/08/19 04:05:17;;;;;;;4.35;3.60;;;;;;;;;;5054965;28;20201;-68
2023/08/19 04:07:45;;;;;;;5.40;4.18;;;;;;;;;;5052412;28;20225;-68
2023/08/19 04:10:12;;;;;;;5.05;3.45;;;;;;;;;;5056358;28;20240;-69
2023/08/19 04:12:40;;;;;;;5.90;4.05;;;;;;;;;;5047711;28;20210;-67
2023/08/19 04:15:09;;;;;;;4.82;3.60;;;;;;;;;;5049995;28;20212;-68
2023/08/19 04:17:38;;;;;;;4.50;3.75;;;;;;;;;;5059943;28;20233;-70
2023/08/19 04:20:09;;;;;;;4.97;3.60;;;;;;;;;;5051806;28;20197;-68
2023/08/19 04:22:37;;;;;;;4.15;3.55;;;;;;;;;;5058362;28;20197;-67
2023/08/19 04:25:05;;;;;;;3.53;3.22;;;;;;;;;;5060573;28;20203;-67
2023/08/19 04:27:32;;;;;;;6.35;3.28;;;;;;;;;;5053163;28;20312;-66
2023/08/19 04:30:00;;;;;;;3.72;3.35;;;;;;;;;;5053602;28;20197;-67
2023/08/19 04:32:27;;;;;;;3.33;3.03;;;;;;;;;;5051565;28;20237;-68
2023/08/19 04:34:55;;;;;;;4.70;3.53;;;;;;;;;;5053669;28;20300;-68
2023/08/19 04:37:22;;;;;;;5.43;3.15;;;;;;;;;;5048898;28;20517;-70
2023/08/19 04:39:50;;;;;;;3.95;3.28;;;;;;;;;;5046743;28;20198;-69
2023/08/19 04:42:17;;;;;;;4.68;3.63;;;;;;;;;;5032596;28;20210;-71
2023/08/19 04:44:44;;;;;;;6.95;4.07;;;;;;;;;;5036270;28;20216;-69
2023/08/19 04:47:12;;;;;;;4.75;3.35;;;;;;;;;;5038387;28;20237;-69
2023/08/19 04:49:39;;;;;;;4.97;3.55;;;;;;;;;;5042888;28;20889;-68
2023/08/19 04:52:06;;;;;;;3.92;3.50;;;;;;;;;;5041697;28;20235;-70
2023/08/19 04:54:34;;;;;;;4.75;3.20;;;;;;;;;;5046350;28;20224;-70
2023/08/19 04:57:01;;;;;;;5.65;3.38;;;;;;;;;;5046676;28;20323;-70
2023/08/19 04:59:28;;;;;;;5.32;3.85;;;;;;;;;;5031064;28;20793;-69
2023/08/19 05:01:56;;;;;;;7.10;4.20;;;;;;;;;;5036366;28;20210;-69
2023/08/19 05:04:24;;;;;;;6.82;3.85;;;;;;;;;;5034914;28;20210;-68
2023/08/19 05:06:51;;;;;;;4.38;3.60;;;;;;;;;;5040473;28;20248;-68
2023/08/19 05:09:19;;;;;;;4.22;3.30;;;;;;;;;;5043244;28;20222;-69
2023/08/19 05:11:46;;;;;;;7.38;3.28;;;;;;;;;;5036959;28;20229;-66
2023/08/19 05:14:13;;;;;;;4.90;3.38;;;;;;;;;;5037293;28;20295;-68
2023/08/19 05:16:41;;;;;;;4.68;3.22;;;;;;;;;;5035994;28;21086;-69
2023/08/19 05:19:18;;;;;;;4.03;3.30;;;;;;;;;;5034993;28;20205;-67
2023/08/19 05:21:46;;;;;;;4.28;3.20;;;;;;;;;;5038510;28;22855;-68
2023/08/19 05:24:14;;;;;;;3.72;3.28;;;;;;;;;;5032348;28;20217;-69
2023/08/19 05:26:44;;;;;;;4.35;3.55;;;;;;;;;;5041237;28;20240;-69
2023/08/19 05:29:12;;;;;;;5.35;3.50;;;;;;;;;;5049686;28;20286;-68
2023/08/19 05:31:40;;;;;;;3.83;3.42;;;;;;;;;;5051959;28;20233;-71
2023/08/19 05:34:08;;;;;;;4.28;3.70;;;;;;;;;;5048766;28;20205;-68
2023/08/19 05:36:35;;;;;;;10.02;3.47;;;;;;;;;;5049059;28;20229;-69
2023/08/19 05:39:03;;;;;;;6.32;3.80;;;;;;;;;;5045759;28;20551;-66
2023/08/19 05:41:30;;;;;;;8.40;3.47;;;;;;;;;;5044480;28;20210;-67
2023/08/19 05:43:58;;;;;;;3.63;3.33;;;;;;;;;;5053703;28;20202;-68
2023/08/19 05:46:25;;;;;;;4.00;3.40;;;;;;;;;;5055191;28;20229;-68
2023/08/19 05:48:53;;;;;;;3.08;2.88;;;;;;;;;;5056666;28;20224;-68
2023/08/19 05:51:20;;;;;;;4.18;3.03;;;;;;;;;;5058841;28;20328;-67
2023/08/19 05:53:47;;;;;;;3.97;3.00;;;;;;;;;;5056629;28;20255;-65
2023/08/19 05:56:15;;;;;;;7.15;3.38;;;;;;;;;;5054771;28;20202;-69
2023/08/19 05:58:42;;;;;;;7.72;2.90;;;;;;;;;;5053497;28;20292;-67
2023/08/19 06:01:09;;;;;;;4.05;3.25;;;;;;;;;;5060853;28;20671;-68
2023/08/19 06:03:37;;;;;;;3.60;3.30;;;;;;;;;;5057774;28;20211;-68
2023/08/19 06:06:07;;;;;;;3.78;3.47;;;;;;;;;;5055267;28;20206;-69
2023/08/19 06:08:35;;;;;;;3.78;3.40;;;;;;;;;;5057983;28;20291;-67
2023/08/19 06:11:05;;;;;;;4.50;3.92;;;;;;;;;;5055437;28;20281;-68
2023/08/19 06:13:32;;;;;;;4.38;3.22;;;;;;;;;;5054678;28;20572;-68
2023/08/19 06:16:00;;;;;;;4.47;3.58;;;;;;;;;;5061945;28;20627;-69
2023/08/19 06:18:28;;;;;;;4.45;3.72;;;;;;;;;;5056572;28;20201;-70
2023/08/19 06:20:56;;;;;;;4.88;3.30;;;;;;;;;;5051405;28;20300;-67
2023/08/19 06:23:23;;;;;;;5.05;3.60;;;;;;;;;;5056979;28;20637;-69
2023/08/19 06:25:51;;;;;;;8.40;3.70;;;;;;;;;;5058249;28;20201;-69
2023/08/19 06:28:19;;;;;;;4.93;3.50;;;;;;;;;;5054722;28;20221;-68
2023/08/19 06:30:46;;;;;;;3.78;3.45;;;;;;;;;;5056747;28;21423;-68
2023/08/19 06:33:14;;;;;;;5.28;3.20;;;;;;;;;;5062979;28;20202;-68
2023/08/19 06:35:47;;;;;;;5.57;3.10;;;;;;;;;;5056639;28;20733;-67
2023/08/19 06:38:24;;;;;;;5.53;3.13;;;;;;;;;;5063435;28;20297;-68
2023/08/19 06:40:57;;;;;;;5.53;3.80;;;;;;;;;;5061511;28;20197;-69
2023/08/19 06:43:26;;;;;;;4.53;3.72;;;;;;;;;;5056750;28;20522;-68
2023/08/19 06:45:56;;;;;;;5.90;3.72;;;;;;;;;;5054222;28;20577;-70
2023/08/19 06:48:24;;;;;;;5.05;3.55;;;;;;;;;;5062728;28;20232;-68
2023/08/19 06:50:52;;;;;;;4.72;3.50;;;;;;;;;;5059218;28;20225;-68
2023/08/19 06:53:20;;;;;;;5.18;3.40;;;;;;;;;;5063167;28;20194;-67
2023/08/19 06:55:59;;;;;;;4.68;3.40;;;;;;;;;;5055950;28;20659;-67
2023/08/19 06:58:28;;;;;;;4.35;3.85;;;;;;;;;;5058769;28;20201;-68
2023/08/19 07:01:00;;;;;;;6.57;3.67;;;;;;;;;;5065561;28;20586;-68
2023/08/19 07:03:30;;;;;;;4.93;3.78;;;;;;;;;;5061596;28;20473;-66
2023/08/19 07:05:58;;;;;;;5.85;3.47;;;;;;;;;;5081630;28;20198;-68
2023/08/19 07:08:30;;;;;;;4.38;3.40;;;;;;;;;;5070712;28;20310;-67
2023/08/19 07:11:00;;;;;;;5.45;3.60;;;;;;;;;;5074303;28;20193;-70
2023/08/19 07:13:28;;;;;;;5.45;3.50;;;;;;;;;;5063628;28;20240;-67
2023/08/19 07:16:03;;;;;;;7.75;3.95;;;;;;;;;;5059725;28;20195;-67
2023/08/19 07:18:41;;;;;;;5.28;3.45;;;;;;;;;;5060329;28;20202;-68
2023/08/19 07:21:09;;;;;;;6.15;3.55;;;;;;;;;;5058209;28;20686;-70
2023/08/19 07:23:38;;;;;;;3.63;3.33;;;;;;;;;;5057155;28;20197;-66
2023/08/19 07:26:05;;;;;;;5.65;3.47;;;;;;;;;;5061575;28;20205;-68
2023/08/19 07:28:33;;;;;;;4.40;3.97;;;;;;;;;;5053507;28;20194;-67
2023/08/19 07:31:00;;;;;;;5.63;3.75;;;;;;;;;;5057480;28;20717;-67
2023/08/19 07:33:27;;;;;;;5.53;3.60;;;;;;;;;;5059154;28;20206;-69
2023/08/19 07:35:54;;;;;;;5.15;3.50;;;;;;;;;;5051344;28;20282;-68
2023/08/19 07:38:22;;;;;;;5.15;3.63;;;;;;;;;;5060174;28;20278;-69
2023/08/19 07:40:49;;;;;;;6.40;3.72;;;;;;;;;;5059953;28;20742;-67
2023/08/19 07:43:16;;;;;;;3.65;3.20;;;;;;;;;;5056580;28;20589;-67
2023/08/19 07:45:44;;;;;;;4.88;3.80;;;;;;;;;;5057778;28;20224;-67
2023/08/19 07:48:11;;;;;;;3.88;3.38;;;;;;;;;;5057089;28;20271;-67
2023/08/19 07:50:38;;;;;;;7.25;4.10;;;;;;;;;;5062469;28;20270;-67
2023/08/19 07:53:06;;;;;;;4.55;3.35;;;;;;;;;;5060579;28;20271;-67
2023/08/19 07:55:33;;;;;;;5.45;3.80;;;;;;;;;;5055897;28;20201;-68
2023/08/19 07:58:00;;;;;;;5.88;3.55;;;;;;;;;;5059078;28;20253;-68
2023/08/19 08:00:27;;;;;;;5.22;3.80;;;;;;;;;;5057282;28;20206;-70
2023/08/19 08:02:55;;;;;;;5.78;3.72;;;;;;;;;;5059486;28;20202;-68
2023/08/19 08:05:22;;;;;;;5.65;3.88;;;;;;;;;;5060251;28;20288;-68
2023/08/19 08:07:49;;;;;;;5.72;3.95;;;;;;;;;;5057682;28;20240;-69
2023/08/19 08:10:17;;;;;;;5.00;3.80;;;;;;;;;;5057607;28;20216;-68
2023/08/19 08:12:44;;;;;;;5.97;3.42;;;;;;;;;;5041341;28;20753;-67
2023/08/19 08:15:12;;;;;;;6.00;3.50;;;;;;;;;;5056231;28;20287;-69
2023/08/19 08:17:40;;;;;;;5.32;3.90;;;;;;;;;;5062520;28;20217;-68
2023/08/19 08:20:08;;;;;;;5.60;3.42;;;;;;;;;;5060618;28;20205;-68
2023/08/19 08:22:35;;;;;;;4.45;3.83;;;;;;;;;;5063855;28;20201;-67
2023/08/19 08:25:06;;;;;;;5.25;3.60;;;;;;;;;;5074386;28;20266;-69
2023/08/19 08:27:34;;;;;;;7.32;3.80;;;;;;;;;;5063856;28;20706;-67
2023/08/19 08:30:02;;;;;;;5.72;3.53;;;;;;;;;;5056114;28;20679;-68
2023/08/19 08:32:29;;;;;;;5.90;3.65;;;;;;;;;;5061186;28;20582;-69
2023/08/19 08:34:56;;;;;;;6.22;3.70;;;;;;;;;;5061143;28;20206;-70
2023/08/19 08:37:23;;;;;;;7.13;3.70;;;;;;;;;;5063732;28;20744;-68
2023/08/19 08:39:51;;;;;;;5.00;3.30;;;;;;;;;;5066435;28;20202;-67
2023/08/19 08:42:18;;;;;;;4.78;3.65;;;;;;;;;;5064829;28;20277;-68
2023/08/19 08:44:47;;;;;;;6.95;3.60;;;;;;;;;;5060054;28;20217;-69
2023/08/19 08:47:15;;;;;;;6.50;3.70;;;;;;;;;;5054919;28;20923;-66
2023/08/19 08:49:46;;;;;;;8.70;3.70;;;;;;;;;;5057149;28;20205;-68
2023/08/19 08:52:14;;;;;;;4.78;3.58;;;;;;;;;;5059477;28;20226;-68
2023/08/19 08:54:43;;;;;;;4.30;3.42;;;;;;;;;;5056353;28;20247;-68
2023/08/19 08:57:12;;;;;;;3.88;3.50;;;;;;;;;;5057121;28;20217;-69
2023/08/19 08:59:39;;;;;;;4.97;4.20;;;;;;;;;;5048167;28;20717;-67
2023/08/19 09:02:08;;;;;;;3.97;3.45;;;;;;;;;;5059238;28;20232;-67
2023/08/19 09:04:35;;;;;;;6.45;4.07;;;;;;;;;;5054659;28;20206;-69
2023/08/19 09:07:09;;;;;;;5.55;3.90;;;;;;;;;;5059694;28;20240;-67
2023/08/19 09:09:37;;;;;;;3.83;3.42;;;;;;;;;;5058602;28;20210;-66
2023/08/19 09:12:09;;;;;;;4.30;3.72;;;;;;;;;;5058386;28;20285;-66
2023/08/19 09:14:40;;;;;;;7.90;3.60;;;;;;;;;;5054358;28;20243;-69
2023/08/19 09:17:08;;;;;;;5.70;3.83;;;;;;;;;;5058829;28;20280;-66
2023/08/19 09:19:35;;;;;;;5.65;3.63;;;;;;;;;;5060070;28;20663;-68
2023/08/19 09:22:10;;;;;;;4.97;3.63;;;;;;;;;;5054575;28;20214;-70
2023/08/19 09:24:38;;;;;;;4.95;3.50;;;;;;;;;;5080155;28;20236;-68
2023/08/19 09:27:06;;;;;;;6.43;3.25;;;;;;;;;;5058415;28;20722;-69
2023/08/19 09:29:33;;;;;;;5.53;3.78;;;;;;;;;;5057377;28;20251;-67
2023/08/19 09:32:01;;;;;;;4.30;3.53;;;;;;;;;;5054393;28;21277;-66
2023/08/19 09:34:28;;;;;;;4.78;3.80;;;;;;;;;;5070546;28;20194;-68
2023/08/19 09:36:56;;;;;;;5.95;3.58;;;;;;;;;;5058085;28;20221;-68
2023/08/19 09:39:25;;;;;;;5.88;3.55;;;;;;;;;;5082699;28;20205;-68
2023/08/19 09:41:59;;;;;;;5.03;3.58;;;;;;;;;;5059847;28;20209;-68
2023/08/19 09:44:29;;;;;;;6.60;3.53;;;;;;;;;;5058150;28;20205;-69
2023/08/19 09:46:59;;;;;;;4.35;3.63;;;;;;;;;;5052767;28;20584;-68
2023/08/19 09:49:27;;;;;;;6.22;3.30;;;;;;;;;;5056237;28;20444;-68
2023/08/19 09:51:55;;;;;;;4.53;2.97;;;;;;;;;;5052080;28;20201;-70
2023/08/19 09:54:23;;;;;;;4.30;3.42;;;;;;;;;;5053155;28;20209;-69
2023/08/19 09:56:55;;;;;;;5.07;3.15;;;;;;;;;;5054219;28;20398;-67
2023/08/19 09:59:26;;;;;;;6.10;2.97;;;;;;;;;;5061251;28;20672;-67
2023/08/19 10:01:54;;;;;;;4.20;3.17;;;;;;;;;;5056806;28;20652;-67
2023/08/19 10:04:21;;;;;;;6.45;3.28;;;;;;;;;;5062488;28;20641;-68
2023/08/19 10:06:52;;;;;;;6.45;3.15;;;;;;;;;;5056540;28;20226;-67
2023/08/19 10:09:23;;;;;;;4.05;2.95;;;;;;;;;;5057427;28;20237;-66
2023/08/19 10:11:53;;;;;;;5.45;3.38;;;;;;;;;;5057723;28;20198;-66
2023/08/19 10:14:30;;;;;;;5.10;3.03;;;;;;;;;;5056031;28;21656;-68
2023/08/19 10:17:00;;;;;;;7.18;3.08;;;;;;;;;;5055520;28;20228;-67
2023/08/19 10:19:29;;;;;;;3.97;3.13;;;;;;;;;;5054618;28;20813;-68
2023/08/19 10:21:58;;;;;;;6.43;2.95;;;;;;;;;;5061594;28;20267;-67
2023/08/19 10:24:25;;;;;;;6.38;2.80;;;;;;;;;;5057751;28;20256;-66
2023/08/19 10:26:53;;;;;;;6.20;3.10;;;;;;;;;;5060400;28;20427;-67
2023/08/19 10:29:20;;;;;;;5.78;3.00;;;;;;;;;;5059393;28;20203;-66
2023/08/19 10:31:47;;;;;;;4.65;2.75;;;;;;;;;;5058040;28;20679;-69
2023/08/19 10:34:20;;;;;;;6.65;2.80;;;;;;;;;;5053820;28;20629;-67
2023/08/19 10:37:05;;;;;;;4.13;2.90;;;;;;;;;;5057082;28;20285;-67
2023/08/19 10:39:33;;;;;;;4.85;2.60;;;;;;;;;;5055194;28;20193;-68
2023/08/19 10:42:00;;;;;;;4.35;3.00;;;;;;;;;;5059949;28;20193;-67
2023/08/19 10:44:33;;;;;;;3.88;3.00;;;;;;;;;;5070221;28;20212;-69
2023/08/19 10:47:10;;;;;;;4.57;3.00;;;;;;;;;;5078150;28;20225;-67
2023/08/19 10:49:37;;;;;;;8.80;3.20;;;;;;;;;;5059380;28;20259;-72
2023/08/19 10:52:05;;;;;;;4.95;3.17;;;;;;;;;;5057837;28;20635;-66
2023/08/19 10:54:40;;;;;;;10.43;3.25;;;;;;;;;;5054197;28;20730;-69
2023/08/19 10:57:22;;;;;;;3.75;3.20;;;;;;;;;;5050051;28;20720;-66
2023/08/19 11:00:00;;;;;;;4.00;3.13;;;;;;;;;;5056402;28;20247;-69
2023/08/19 11:02:28;;;;;;;5.43;3.15;;;;;;;;;;5057780;28;20691;-68
2023/08/19 11:04:57;;;;;;;8.32;3.22;;;;;;;;;;5053691;28;20686;-67
2023/08/19 11:07:25;;;;;;;4.18;2.55;;;;;;;;;;5058027;28;20572;-68
2023/08/19 11:09:56;;;;;;;3.97;2.70;;;;;;;;;;5057463;28;20219;-66
2023/08/19 11:12:26;;;;;;;4.90;2.63;;;;;;;;;;5055381;28;20664;-66
2023/08/19 11:14:59;;;;;;;4.82;2.65;;;;;;;;;;5060764;28;20755;-69
2023/08/19 11:17:31;;;;;;;4.25;2.55;;;;;;;;;;5054307;28;20236;-68
2023/08/19 11:20:07;;;;;;;4.85;2.90;;;;;;;;;;5068334;28;20276;-67
2023/08/19 11:22:42;;;;;;;3.35;2.45;;;;;;;;;;5061164;28;20205;-67
2023/08/19 11:25:09;;;;;;;3.47;2.22;;;;;;;;;;5065213;28;20249;-68
2023/08/19 11:27:36;;;;;;;4.50;2.55;;;;;;;;;;5062369;28;20228;-69
2023/08/19 11:30:04;;;;;;;2.90;2.50;;;;;;;;;;5061263;28;20241;-66
2023/08/19 11:32:31;;;;;;;6.40;2.78;;;;;;;;;;5057299;28;20384;-68
2023/08/19 11:34:59;;;;;;;6.75;2.75;;;;;;;;;;5062621;28;20653;-66
2023/08/19 11:37:29;;;;;;;4.32;3.00;;;;;;;;;;5058260;28;20281;-68
2023/08/19 11:39:56;;;;;;;2.50;2.30;;;;;;;;;;5061207;28;20259;-68
2023/08/19 11:42:26;;;;;;;3.22;2.50;;;;;;;;;;5060425;28;20250;-68
2023/08/19 11:44:56;;;;;;;3.30;2.30;;;;;;;;;;5058496;28;20799;-68
2023/08/19 11:47:25;;;;;;;5.57;3.05;;;;;;;;;;5061944;28;20583;-67
2023/08/19 11:49:52;;;;;;;3.28;2.58;;;;;;;;;;5059657;28;20659;-66
2023/08/19 11:52:20;;;;;;;4.35;2.90;;;;;;;;;;5061545;28;20230;-66
2023/08/19 11:55:00;;;;;;;4.75;3.08;;;;;;;;;;5065830;28;20197;-68
2023/08/19 11:57:37;;;;;;;2.88;2.47;;;;;;;;;;5060659;28;20245;-68
2023/08/19 12:00:05;;;;;;;3.70;2.53;;;;;;;;;;5057112;28;20212;-68
2023/08/19 12:02:33;;;;;;;7.45;2.90;;;;;;;;;;5066449;28;20475;-68
2023/08/19 12:05:00;;;;;;;3.15;2.33;;;;;;;;;;5064543;28;20210;-66
2023/08/19 12:07:30;;;;;;;6.20;2.88;;;;;;;;;;5055611;28;20228;-68
2023/08/19 12:09:58;;;;;;;6.25;2.88;;;;;;;;;;5059227;28;20206;-68
2023/08/19 12:12:25;;;;;;;4.65;2.72;;;;;;;;;;5057918;28;20201;-69
2023/08/19 12:14:53;;;;;;;3.83;2.65;;;;;;;;;;5065625;28;20216;-67
2023/08/19 12:17:21;;;;;;;4.40;2.92;;;;;;;;;;5060224;28;20220;-66
2023/08/19 12:19:48;;;;;;;4.93;3.20;;;;;;;;;;5058838;28;20198;-66
2023/08/19 12:22:16;;;;;;;5.72;2.78;;;;;;;;;;5062745;28;20213;-67
2023/08/19 12:24:43;;;;;;;5.03;2.83;;;;;;;;;;5057762;28;20205;-67
2023/08/19 12:27:11;;;;;;;7.07;2.80;;;;;;;;;;5062174;28;20233;-68
2023/08/19 12:29:38;;;;;;;5.72;2.70;;;;;;;;;;5061032;28;20208;-67
2023/08/19 12:32:05;;;;;;;6.25;3.00;;;;;;;;;;5059701;28;20663;-68
2023/08/19 12:34:32;;;;;;;5.13;3.10;;;;;;;;;;5060598;28;20239;-69
2023/08/19 12:37:00;;;;;;;4.82;3.00;;;;;;;;;;5056999;28;20222;-66
2023/08/19 12:39:31;;;;;;;5.80;3.10;;;;;;;;;;5061140;28;20207;-66
2023/08/19 12:41:58;;;;;;;5.90;3.55;;;;;;;;;;5060943;28;20243;-67
2023/08/19 12:44:26;;;;;;;8.00;3.25;;;;;;;;;;5061620;28;20213;-68
2023/08/19 12:46:53;;;;;;;4.15;3.40;;;;;;;;;;5059872;28;20590;-67
2023/08/19 12:49:21;;;;;;;4.05;3.10;;;;;;;;;;5060268;28;20295;-69
2023/08/19 12:51:48;;;;;;;7.35;3.38;;;;;;;;;;5052554;28;20584;-67
2023/08/19 12:54:16;;;;;;;4.60;3.40;;;;;;;;;;5056113;28;20702;-67
2023/08/19 12:56:43;;;;;;;5.65;3.22;;;;;;;;;;5056983;28;20702;-68
2023/08/19 12:59:11;;;;;;;6.40;3.38;;;;;;;;;;5053226;28;20259;-67
2023/08/19 13:01:38;;;;;;;5.05;2.88;;;;;;;;;;5056599;28;21044;-69
2023/08/19 13:04:06;;;;;;;6.30;3.35;;;;;;;;;;5056340;28;20908;-66
2023/08/19 13:06:34;;;;;;;6.07;3.70;;;;;;;;;;5059530;28;20218;-69
2023/08/19 13:09:01;;;;;;;5.00;3.40;;;;;;;;;;5054586;28;20587;-69
2023/08/19 13:11:28;;;;;;;4.72;3.50;;;;;;;;;;5056088;28;20201;-67
2023/08/19 13:13:55;;;;;;;3.58;3.28;;;;;;;;;;5059419;28;20266;-67
2023/08/19 13:16:23;;;;;;;4.45;3.28;;;;;;;;;;5055970;28;20214;-70
2023/08/19 13:18:50;;;;;;;4.78;3.42;;;;;;;;;;5055705;28;20205;-67
2023/08/19 13:21:17;;;;;;;4.68;3.13;;;;;;;;;;5055191;28;20209;-68
2023/08/19 13:23:44;;;;;;;4.57;3.20;;;;;;;;;;5053807;28;20197;-68
2023/08/19 13:26:12;;;;;;;6.15;3.78;;;;;;;;;;5056231;28;20667;-67
2023/08/19 13:28:39;;;;;;;5.93;3.15;;;;;;;;;;5059064;28;20209;-66
2023/08/19 13:31:06;;;;;;;7.40;3.13;;;;;;;;;;5081134;28;20189;-70
2023/08/19 13:33:34;;;;;;;4.65;3.10;;;;;;;;;;5067846;28;20593;-69
2023/08/19 13:36:01;;;;;;;5.70;3.30;;;;;;;;;;5057896;28;20678;-67
2023/08/19 13:38:32;;;;;;;6.65;3.15;;;;;;;;;;5064308;28;20197;-67
2023/08/19 13:40:59;;;;;;;6.38;3.65;;;;;;;;;;5059806;28;21384;-68
2023/08/19 13:43:26;;;;;;;4.15;3.38;;;;;;;;;;5061934;28;20274;-67
2023/08/19 13:45:54;;;;;;;4.28;3.28;;;;;;;;;;5062232;28;20205;-68
2023/08/19 13:48:21;;;;;;;4.72;3.60;;;;;;;;;;5057667;28;20232;-68
2023/08/19 13:50:48;;;;;;;5.40;3.40;;;;;;;;;;5079894;28;20259;-69
2023/08/19 13:53:16;;;;;;;11.68;4.45;;;;;;;;;;5054027;28;20278;-66
2023/08/19 13:55:44;;;;;;;7.50;4.18;;;;;;;;;;5059175;28;20618;-66
2023/08/19 13:58:11;;;;;;;10.13;3.95;;;;;;;;;;5057742;28;20224;-66
2023/08/19 14:00:39;;;;;;;22.33;12.27;;;;;;;;;;5059545;28;20299;-66
2023/08/19 14:03:06;;;;;;;7.38;3.72;;;;;;;;;;5058140;28;20236;-67
2023/08/19 14:05:34;;;;;;;6.35;4.00;;;;;;;;;;5058431;28;20211;-68
2023/08/19 14:08:02;;;;;;;5.10;3.97;;;;;;;;;;5055587;28;20321;-69
2023/08/19 14:10:30;;;;;;;8.77;4.10;;;;;;;;;;5056058;28;20205;-67
2023/08/19 14:12:57;;;;;;;13.73;5.47;;;;;;;;;;5056179;28;20647;-68
2023/08/19 14:15:24;;;;;;;4.80;3.60;;;;;;;;;;5060474;28;20251;-67
2023/08/19 14:17:53;;;;;;;10.07;6.63;;;;;;;;;;5055075;28;20591;-67
2023/08/19 14:20:20;;;;;;;10.40;5.03;;;;;;;;;;5055521;28;20659;-67
2023/08/19 14:22:48;;;;;;;7.88;3.92;;;;;;;;;;5060370;28;20198;-68
2023/08/19 14:25:15;;;;;;;5.47;3.53;;;;;;;;;;5055246;28;20202;-66
2023/08/19 14:27:42;;;;;;;5.88;3.55;;;;;;;;;;5066010;28;20220;-68
2023/08/19 14:30:10;;;;;;;6.90;3.20;;;;;;;;;;5056752;28;20197;-67
2023/08/19 14:32:37;;;;;;;4.45;3.13;;;;;;;;;;5053916;28;20266;-67
2023/08/19 14:35:05;;;;;;;6.95;3.10;;;;;;;;;;5057467;28;20315;-72
2023/08/19 14:37:32;;;;;;;4.47;3.20;;;;;;;;;;5055904;28;20217;-69
2023/08/19 14:40:00;;;;;;;5.40;3.47;;;;;;;;;;5055190;28;20200;-69
2023/08/19 14:42:28;;;;;;;6.35;3.20;;;;;;;;;;5058097;28;20205;-68
2023/08/19 14:44:55;;;;;;;4.22;3.00;;;;;;;;;;5057289;28;20259;-70
2023/08/19 14:47:22;;;;;;;5.43;3.10;;;;;;;;;;5060014;28;20656;-68
2023/08/19 14:49:49;;;;;;;5.70;3.25;;;;;;;;;;5060404;28;20258;-69